Time;durP1;ratioP1;P1;durP2;ratioP2;P2;SDS_P1;SDS_P2;PMS_P1;PMS_P2;Temp;Humidity;BMP_temperature;BMP_pressure;BME280_temperature;BME280_humidity;BME280_pressure;Samples;Min_cycle;Max_cycle;Signal;HPM_P1;HPM_P2
2022/07/17 00:00:18;;;;;;;;;;;;;;;28.76;43.56;100965.94;105236;1299;62103;-80
2022/07/17 00:02:43;;;;;;;;;;;;;;;28.75;43.42;100965.05;105153;1300;62206;-81
2022/07/17 00:05:09;;;;;;;;;;;;;;;28.76;43.64;100966.27;105285;1300;62185;-82
2022/07/17 00:07:34;;;;;;;;;;;;;;;28.76;43.59;100962.85;105251;1300;62090;-82
2022/07/17 00:10:00;;;;;;;;;;;;;;;28.75;43.51;100961.65;105220;1300;82660;-82
2022/07/17 00:12:25;;;;;;;;;;;;;;;28.75;43.56;100960.58;105126;1301;62094;-82
2022/07/17 00:14:51;;;;;;;;;;;;;;;28.75;43.48;100961.84;105172;1300;61961;-82
2022/07/17 00:17:16;;;;;;;;;;;;;;;28.75;43.63;100962.58;105265;1300;62078;-82
2022/07/17 00:19:42;;;;;;;;;;;;;;;28.75;43.61;100959.73;105134;1302;62024;-81
2022/07/17 00:22:08;;;;;;;;;;;;;;;28.74;43.69;100961.00;105240;1300;62151;-81
2022/07/17 00:24:33;;;;;;;;;;;;;;;28.75;43.52;100959.86;105143;1300;61492;-81
2022/07/17 00:26:59;;;;;;;;;;;;;;;28.74;43.72;100961.00;105171;1300;62248;-81
2022/07/17 00:29:24;;;;;;;;;;;;;;;28.75;43.54;100964.77;105303;1299;63005;-81
2022/07/17 00:31:49;;;;;;;;;;;;;;;28.75;43.51;100964.41;105192;1301;62821;-81
2022/07/17 00:34:15;;;;;;;;;;;;;;;28.75;43.77;100969.84;105252;1300;62108;-81
2022/07/17 00:36:40;;;;;;;;;;;;;;;28.75;43.81;100973.44;105185;1300;62174;-81
2022/07/17 00:39:06;;;;;;;;;;;;;;;28.74;43.56;100976.77;105238;1300;60956;-82
2022/07/17 00:41:31;;;;;;;;;;;;;;;28.74;43.68;100977.48;105313;1300;62171;-82
2022/07/17 00:44:04;;;;;;;;;;;;;;;28.74;43.70;100974.45;105209;1300;70848;-82
2022/07/17 00:46:29;;;;;;;;;;;;;;;28.74;43.70;100971.87;105203;1300;75592;-82
2022/07/17 00:48:54;;;;;;;;;;;;;;;28.75;43.83;100968.59;105259;1299;62071;-81
2022/07/17 00:51:20;;;;;;;;;;;;;;;28.74;43.67;100970.75;105095;1300;62109;-81
2022/07/17 00:53:45;;;;;;;;;;;;;;;28.74;43.76;100972.98;105159;1300;62158;-81
2022/07/17 00:56:11;;;;;;;;;;;;;;;28.74;43.82;100972.79;105298;1300;62903;-81
2022/07/17 00:58:36;;;;;;;;;;;;;;;28.74;43.95;100971.73;105152;1300;62088;-81
2022/07/17 01:01:04;;;;;;;;;;;;;;;28.74;43.75;100975.73;105274;1300;62059;-81
2022/07/17 01:03:29;;;;;;;;;;;;;;;28.74;43.67;100973.20;105197;1300;62069;-81
2022/07/17 01:05:55;;;;;;;;;;;;;;;28.73;43.96;100973.77;105159;1301;62197;-81
2022/07/17 01:08:20;;;;;;;;;;;;;;;28.73;43.86;100970.91;105175;1302;62213;-81
2022/07/17 01:10:46;;;;;;;;;;;;;;;28.73;43.71;100970.04;105103;1300;62235;-81
2022/07/17 01:13:11;;;;;;;;;;;;;;;28.73;43.82;100973.29;105165;1300;62159;-81
2022/07/17 01:15:38;;;;;;;;;;;;;;;28.73;43.61;100973.31;105169;1300;61834;-81
2022/07/17 01:18:04;;;;;;;;;;;;;;;28.73;43.98;100974.20;105205;1300;72742;-81
2022/07/17 01:20:30;;;;;;;;;;;;;;;28.73;43.76;100973.84;105150;1300;61940;-81
2022/07/17 01:22:57;;;;;;;;;;;;;;;28.73;44.02;100975.84;105225;1300;62210;-81
2022/07/17 01:25:23;;;;;;;;;;;;;;;28.72;43.86;100980.75;105125;1300;62069;-81
2022/07/17 01:27:49;;;;;;;;;;;;;;;28.72;44.03;100971.02;105149;1302;62188;-81
2022/07/17 01:30:14;;;;;;;;;;;;;;;28.72;44.24;100968.84;104924;1303;62089;-81
2022/07/17 01:32:40;;;;;;;;;;;;;;;28.72;43.97;100969.73;105215;1300;62169;-81
2022/07/17 01:35:06;;;;;;;;;;;;;;;28.72;44.00;100969.38;105115;1300;62168;-81
2022/07/17 01:37:32;;;;;;;;;;;;;;;28.72;43.92;100976.80;105301;1300;62216;-81
2022/07/17 01:39:57;;;;;;;;;;;;;;;28.72;44.03;100977.01;105116;1300;75035;-81
2022/07/17 01:42:24;;;;;;;;;;;;;;;28.72;43.89;100977.90;105196;1300;62060;-81
2022/07/17 01:44:49;;;;;;;;;;;;;;;28.72;44.11;100976.88;105216;1300;62038;-81
2022/07/17 01:47:15;;;;;;;;;;;;;;;28.72;43.92;100979.55;105151;1302;62058;-82
2022/07/17 01:49:48;;;;;;;;;;;;;;;28.71;43.75;100977.41;105138;1300;62162;-81
2022/07/17 01:52:14;;;;;;;;;;;;;;;28.71;44.15;100973.27;105221;1300;75995;-81
2022/07/17 01:54:39;;;;;;;;;;;;;;;28.72;44.15;100975.41;105107;1300;62161;-81
2022/07/17 01:57:05;;;;;;;;;;;;;;;28.71;44.24;100978.52;105231;1300;62227;-81
2022/07/17 01:59:30;;;;;;;;;;;;;;;28.71;44.13;100981.05;105198;1300;62069;-81
2022/07/17 02:01:56;;;;;;;;;;;;;;;28.71;44.17;100982.55;105248;1302;62084;-81
2022/07/17 02:04:21;;;;;;;;;;;;;;;28.71;44.06;100987.07;105221;1300;62040;-81
2022/07/17 02:06:47;;;;;;;;;;;;;;;28.71;44.06;100988.72;105201;1300;62169;-81
2022/07/17 02:09:13;;;;;;;;;;;;;;;28.71;44.04;100988.38;105083;1302;62167;-81
2022/07/17 02:11:38;;;;;;;;;;;;;;;28.71;44.04;100986.91;105235;1303;60886;-81
2022/07/17 02:14:03;;;;;;;;;;;;;;;28.70;44.04;100989.83;105174;1302;62129;-81
2022/07/17 02:16:29;;;;;;;;;;;;;;;28.70;44.15;100989.90;105196;1300;76668;-81
2022/07/17 02:18:54;;;;;;;;;;;;;;;28.70;44.20;100992.58;105129;1302;62200;-81
2022/07/17 02:21:20;;;;;;;;;;;;;;;28.70;44.23;100995.70;105197;1300;62117;-81
2022/07/17 02:23:45;;;;;;;;;;;;;;;28.70;43.89;100992.60;105199;1300;62057;-81
2022/07/17 02:26:10;;;;;;;;;;;;;;;28.70;44.04;100989.02;105181;1300;62016;-81
2022/07/17 02:28:36;;;;;;;;;;;;;;;28.70;43.96;100992.44;105130;1302;62120;-81
2022/07/17 02:31:01;;;;;;;;;;;;;;;28.69;44.26;100991.91;105227;1299;62055;-81
2022/07/17 02:33:27;;;;;;;;;;;;;;;28.69;44.06;100993.55;105169;1303;62216;-81
2022/07/17 02:35:52;;;;;;;;;;;;;;;28.69;43.89;100996.84;105236;1300;62340;-81
2022/07/17 02:38:18;;;;;;;;;;;;;;;28.69;44.12;100996.64;105167;1300;62173;-81
2022/07/17 02:40:43;;;;;;;;;;;;;;;28.69;44.15;100998.10;105188;1300;62213;-81
2022/07/17 02:43:10;;;;;;;;;;;;;;;28.69;44.05;100998.13;105109;1300;62088;-81
2022/07/17 02:45:35;;;;;;;;;;;;;;;28.70;44.06;101002.42;105227;1299;62077;-81
2022/07/17 02:48:01;;;;;;;;;;;;;;;28.69;44.05;101004.45;105125;1302;62174;-81
2022/07/17 02:50:27;;;;;;;;;;;;;;;28.69;44.15;101004.32;105107;1301;62061;-81
2022/07/17 02:52:53;;;;;;;;;;;;;;;28.68;44.04;101003.27;105245;1300;62116;-81
2022/07/17 02:55:18;;;;;;;;;;;;;;;28.69;44.13;101009.75;105137;1300;61950;-81
2022/07/17 02:57:46;;;;;;;;;;;;;;;28.69;44.18;101011.55;105204;1299;62224;-81
2022/07/17 03:00:12;;;;;;;;;;;;;;;28.68;44.19;101015.77;105022;1302;72810;-81
2022/07/17 03:02:37;;;;;;;;;;;;;;;28.69;44.26;101017.14;105120;1303;62275;-81
2022/07/17 03:05:04;;;;;;;;;;;;;;;28.69;44.27;101017.90;105221;1300;63252;-81
2022/07/17 03:07:29;;;;;;;;;;;;;;;28.68;44.15;101021.91;104991;1302;62088;-81
2022/07/17 03:09:54;;;;;;;;;;;;;;;28.68;44.04;101017.92;105227;1300;62100;-81
2022/07/17 03:12:20;;;;;;;;;;;;;;;28.69;44.20;101021.14;105255;1300;62081;-81
2022/07/17 03:14:45;;;;;;;;;;;;;;;28.69;44.16;101021.70;105099;1301;62103;-81
2022/07/17 03:17:11;;;;;;;;;;;;;;;28.69;44.12;101022.61;104982;1302;63424;-81
2022/07/17 03:19:37;;;;;;;;;;;;;;;28.69;44.24;101021.48;105201;1300;62033;-81
2022/07/17 03:22:02;;;;;;;;;;;;;;;28.69;44.29;101021.34;104970;1302;62124;-81
2022/07/17 03:24:28;;;;;;;;;;;;;;;28.69;44.07;101025.10;105248;1300;62066;-81
2022/07/17 03:26:53;;;;;;;;;;;;;;;28.69;44.40;101032.50;105216;1300;75587;-81
2022/07/17 03:29:19;;;;;;;;;;;;;;;28.69;44.33;101034.17;105244;1300;62093;-81
2022/07/17 03:31:45;;;;;;;;;;;;;;;28.69;44.19;101035.42;105243;1300;62084;-81
2022/07/17 03:34:10;;;;;;;;;;;;;;;28.69;44.26;101040.82;105207;1300;62170;-81
2022/07/17 03:36:36;;;;;;;;;;;;;;;28.69;44.13;101042.27;105234;1300;62169;-81
2022/07/17 03:39:01;;;;;;;;;;;;;;;28.69;44.28;101043.57;105148;1300;62068;-81
2022/07/17 03:41:26;;;;;;;;;;;;;;;28.69;44.19;101044.83;105208;1300;62162;-81
2022/07/17 03:43:52;;;;;;;;;;;;;;;28.69;44.13;101045.91;105157;1300;62168;-81
2022/07/17 03:46:17;;;;;;;;;;;;;;;28.70;44.13;101053.48;105241;1300;62770;-81
2022/07/17 03:48:43;;;;;;;;;;;;;;;28.70;44.13;101055.11;105264;1300;62088;-81
2022/07/17 03:51:08;;;;;;;;;;;;;;;28.70;44.21;101061.27;105096;1300;75732;-81
2022/07/17 03:53:34;;;;;;;;;;;;;;;28.70;44.32;101061.77;105136;1300;62036;-81
2022/07/17 03:56:00;;;;;;;;;;;;;;;28.69;44.42;101066.18;105023;1301;62136;-81
2022/07/17 03:58:25;;;;;;;;;;;;;;;28.70;44.18;101067.76;105196;1300;62075;-81
2022/07/17 04:00:50;;;;;;;;;;;;;;;28.70;44.09;101072.10;105099;1300;62694;-81
2022/07/17 04:03:16;;;;;;;;;;;;;;;28.70;44.10;101076.27;105220;1300;76523;-81
2022/07/17 04:05:41;;;;;;;;;;;;;;;28.70;44.31;101078.83;105128;1300;62014;-82
2022/07/17 04:08:07;;;;;;;;;;;;;;;28.70;44.33;101074.31;105258;1300;62178;-82
2022/07/17 04:10:32;;;;;;;;;;;;;;;28.70;44.27;101079.52;105169;1300;62178;-82
2022/07/17 04:12:58;;;;;;;;;;;;;;;28.70;44.34;101083.67;105165;1302;62077;-82
2022/07/17 04:18:08;;;;;;;;;;;;;;;28.70;43.98;101095.09;105270;1300;62072;-83
2022/07/17 04:20:33;;;;;;;;;;;;;;;28.70;44.27;101097.83;105143;1300;62008;-83
2022/07/17 04:22:59;;;;;;;;;;;;;;;28.70;43.99;101100.12;105210;1300;62075;-82
2022/07/17 04:25:25;;;;;;;;;;;;;;;28.70;44.25;101100.33;105168;1300;62062;-83
2022/07/17 04:27:50;;;;;;;;;;;;;;;28.71;44.35;101107.33;105174;1301;62042;-83
2022/07/17 04:30:16;;;;;;;;;;;;;;;28.71;44.15;101113.52;105173;1301;62085;-83
2022/07/17 04:32:42;;;;;;;;;;;;;;;28.71;44.14;101121.45;105143;1302;62238;-83
2022/07/17 04:35:07;;;;;;;;;;;;;;;28.71;44.20;101124.71;105124;1302;62087;-82
2022/07/17 04:37:33;;;;;;;;;;;;;;;28.72;44.12;101125.19;105193;1300;62171;-83
2022/07/17 04:39:58;;;;;;;;;;;;;;;28.72;43.91;101131.47;105151;1300;62043;-81
2022/07/17 04:42:24;;;;;;;;;;;;;;;28.73;43.97;101134.10;105142;1302;62097;-81
2022/07/17 04:44:49;;;;;;;;;;;;;;;28.74;44.18;101134.39;105189;1300;62075;-81
2022/07/17 04:47:15;;;;;;;;;;;;;;;28.74;43.95;101139.59;105149;1300;61937;-81
2022/07/17 04:49:40;;;;;;;;;;;;;;;28.75;44.04;101138.23;104994;1302;62130;-81
2022/07/17 04:52:06;;;;;;;;;;;;;;;28.75;44.03;101139.46;105247;1300;62206;-81
2022/07/17 04:54:31;;;;;;;;;;;;;;;28.76;43.91;101144.70;105280;1300;62175;-81
2022/07/17 04:56:57;;;;;;;;;;;;;;;28.75;44.08;101148.87;104919;1300;61937;-81
2022/07/17 04:59:22;;;;;;;;;;;;;;;28.77;44.01;101150.40;105151;1300;62098;-81
2022/07/17 05:01:48;;;;;;;;;;;;;;;28.78;44.23;101152.48;105155;1300;62084;-81
2022/07/17 05:04:14;;;;;;;;;;;;;;;28.78;44.41;101151.23;105125;1300;62058;-81
2022/07/17 05:06:40;;;;;;;;;;;;;;;28.78;44.11;101154.40;105160;1300;62183;-81
2022/07/17 05:09:05;;;;;;;;;;;;;;;28.80;44.39;101154.05;105266;1299;62065;-81
2022/07/17 05:11:31;;;;;;;;;;;;;;;28.81;44.15;101156.27;105112;1302;71899;-81
2022/07/17 05:13:56;;;;;;;;;;;;;;;28.83;44.20;101162.86;105210;1300;62036;-81
2022/07/17 05:16:22;;;;;;;;;;;;;;;28.84;44.10;101164.55;105165;1300;62068;-81
2022/07/17 05:18:47;;;;;;;;;;;;;;;28.85;44.22;101166.84;105174;1300;62212;-81
2022/07/17 05:21:14;;;;;;;;;;;;;;;28.85;44.06;101163.13;105147;1302;62175;-81
2022/07/17 05:23:39;;;;;;;;;;;;;;;28.86;44.19;101167.23;105219;1300;73905;-81
2022/07/17 05:26:05;;;;;;;;;;;;;;;28.87;44.29;101169.17;105115;1302;60761;-81
2022/07/17 05:28:30;;;;;;;;;;;;;;;28.87;44.14;101169.69;105149;1300;62271;-81
2022/07/17 05:30:56;;;;;;;;;;;;;;;28.87;44.19;101173.60;105221;1300;62228;-81
2022/07/17 05:33:21;;;;;;;;;;;;;;;28.88;44.14;101176.45;105268;1300;62059;-81
2022/07/17 05:35:47;;;;;;;;;;;;;;;28.88;44.12;101180.94;105121;1301;72780;-81
2022/07/17 05:38:12;;;;;;;;;;;;;;;28.87;44.22;101181.20;105194;1300;62188;-81
2022/07/17 05:40:38;;;;;;;;;;;;;;;28.87;44.32;101184.83;105214;1302;62094;-81
2022/07/17 05:43:03;;;;;;;;;;;;;;;28.87;44.24;101184.89;105123;1300;62491;-81
2022/07/17 05:45:29;;;;;;;;;;;;;;;28.87;44.13;101187.38;105197;1300;62065;-81
2022/07/17 05:47:54;;;;;;;;;;;;;;;28.89;44.22;101187.09;105084;1300;62096;-81
2022/07/17 05:50:19;;;;;;;;;;;;;;;28.89;44.11;101186.50;105242;1300;62148;-81
2022/07/17 05:52:45;;;;;;;;;;;;;;;28.89;44.24;101185.52;105143;1301;62184;-81
2022/07/17 05:55:11;;;;;;;;;;;;;;;28.90;44.03;101188.42;105151;1300;62059;-81
2022/07/17 05:57:37;;;;;;;;;;;;;;;28.89;43.98;101189.70;105296;1301;62100;-81
2022/07/17 06:00:03;;;;;;;;;;;;;;;28.89;44.13;101191.34;105193;1301;73737;-81
2022/07/17 06:02:28;;;;;;;;;;;;;;;28.89;44.01;101192.86;105116;1300;62091;-81
2022/07/17 06:04:54;;;;;;;;;;;;;;;28.88;43.99;101195.44;105150;1300;62111;-81
2022/07/17 06:07:19;;;;;;;;;;;;;;;28.88;44.06;101194.59;105245;1300;62181;-81
2022/07/17 06:09:45;;;;;;;;;;;;;;;28.87;44.19;101196.63;105280;1300;62178;-81
2022/07/17 06:12:10;;;;;;;;;;;;;;;28.86;43.95;101196.91;105202;1300;62295;-81
2022/07/17 06:14:36;;;;;;;;;;;;;;;28.87;44.09;101195.60;105211;1300;62119;-81
2022/07/17 06:17:01;;;;;;;;;;;;;;;28.87;44.21;101195.60;105237;1300;62080;-81
2022/07/17 06:19:27;;;;;;;;;;;;;;;28.87;44.14;101198.63;105194;1300;62087;-81
2022/07/17 06:21:52;;;;;;;;;;;;;;;28.87;43.93;101203.71;105248;1300;62451;-81
2022/07/17 06:24:18;;;;;;;;;;;;;;;28.87;44.13;101200.86;105200;1300;71780;-81
2022/07/17 06:26:43;;;;;;;;;;;;;;;28.87;44.11;101195.42;105203;1300;62097;-81
2022/07/17 06:29:09;;;;;;;;;;;;;;;28.88;44.17;101197.30;104828;1302;471380;-81
2022/07/17 06:31:34;;;;;;;;;;;;;;;28.88;44.07;101194.70;105252;1300;62084;-81
2022/07/17 06:33:59;;;;;;;;;;;;;;;28.88;44.10;101196.33;105270;1299;63813;-81
2022/07/17 06:36:25;;;;;;;;;;;;;;;28.89;44.03;101193.89;104992;1302;74057;-81
2022/07/17 06:38:51;;;;;;;;;;;;;;;28.89;44.04;101192.60;104945;1301;62045;-81
2022/07/17 06:41:17;;;;;;;;;;;;;;;28.90;43.87;101198.68;105230;1300;62216;-81
2022/07/17 06:43:42;;;;;;;;;;;;;;;28.90;43.89;101195.98;105217;1300;62117;-81
2022/07/17 06:46:08;;;;;;;;;;;;;;;28.92;43.93;101195.81;105143;1300;62055;-81
2022/07/17 06:48:33;;;;;;;;;;;;;;;28.92;44.10;101192.54;105058;1302;62088;-81
2022/07/17 06:50:59;;;;;;;;;;;;;;;28.92;44.05;101195.75;105141;1302;62090;-81
2022/07/17 06:53:24;;;;;;;;;;;;;;;28.93;44.23;101198.79;105240;1300;62056;-81
2022/07/17 06:55:49;;;;;;;;;;;;;;;28.92;44.17;101199.73;105194;1300;62197;-81
2022/07/17 06:58:15;;;;;;;;;;;;;;;28.92;44.09;101202.28;105228;1300;62087;-81
2022/07/17 07:00:40;;;;;;;;;;;;;;;28.92;44.05;101202.80;105177;1300;62635;-81
2022/07/17 07:03:06;;;;;;;;;;;;;;;28.92;44.09;101204.08;105239;1300;62097;-81
2022/07/17 07:05:31;;;;;;;;;;;;;;;28.93;43.96;101205.11;105144;1301;62128;-81
2022/07/17 07:07:57;;;;;;;;;;;;;;;28.93;44.14;101205.25;105104;1302;62175;-81
2022/07/17 07:10:22;;;;;;;;;;;;;;;28.94;43.98;101201.41;105210;1300;62055;-81
2022/07/17 07:12:48;;;;;;;;;;;;;;;28.95;44.05;101197.17;105176;1300;62089;-81
2022/07/17 07:15:14;;;;;;;;;;;;;;;28.95;44.01;101200.06;105192;1300;61929;-81
2022/07/17 07:17:40;;;;;;;;;;;;;;;28.95;44.21;101201.86;105180;1300;62238;-81
2022/07/17 07:20:05;;;;;;;;;;;;;;;28.96;44.00;101199.25;105195;1300;62081;-81
2022/07/17 07:22:31;;;;;;;;;;;;;;;28.96;44.04;101199.59;105216;1301;61973;-81
2022/07/17 07:24:57;;;;;;;;;;;;;;;28.96;44.05;101198.64;105094;1302;62064;-81
2022/07/17 07:27:22;;;;;;;;;;;;;;;28.96;43.95;101193.75;105265;1300;62799;-81
2022/07/17 07:29:47;;;;;;;;;;;;;;;28.96;44.24;101192.71;105182;1301;62088;-81
2022/07/17 07:32:13;;;;;;;;;;;;;;;28.96;44.14;101191.31;105255;1300;62063;-81
2022/07/17 07:34:38;;;;;;;;;;;;;;;28.95;44.14;101186.98;105122;1300;62116;-81
2022/07/17 07:37:04;;;;;;;;;;;;;;;28.95;44.12;101188.25;105099;1302;62045;-81
2022/07/17 07:39:29;;;;;;;;;;;;;;;28.96;44.01;101192.02;104943;1300;62213;-81
2022/07/17 07:41:55;;;;;;;;;;;;;;;28.95;43.97;101196.20;105217;1300;62071;-81
2022/07/17 07:44:20;;;;;;;;;;;;;;;28.96;44.16;101197.45;105143;1301;62136;-81
2022/07/17 07:46:45;;;;;;;;;;;;;;;28.96;44.08;101197.42;105228;1300;62071;-81
2022/07/17 07:49:11;;;;;;;;;;;;;;;28.96;44.02;101191.65;105090;1302;62075;-81
2022/07/17 07:51:36;;;;;;;;;;;;;;;28.96;44.02;101193.77;105305;1300;62219;-81
2022/07/17 07:54:02;;;;;;;;;;;;;;;28.96;44.17;101196.48;105131;1300;63022;-81
2022/07/17 07:56:28;;;;;;;;;;;;;;;28.97;44.17;101197.36;105168;1301;62094;-81
2022/07/17 07:58:54;;;;;;;;;;;;;;;28.97;43.80;101200.53;105169;1300;61895;-81
2022/07/17 08:01:19;;;;;;;;;;;;;;;28.97;44.13;101201.48;105260;1300;62120;-81
2022/07/17 08:03:45;;;;;;;;;;;;;;;28.98;44.04;101198.53;105271;1300;62057;-81
2022/07/17 08:06:11;;;;;;;;;;;;;;;28.98;44.02;101197.82;105251;1300;62087;-81
2022/07/17 08:08:36;;;;;;;;;;;;;;;28.98;44.03;101195.45;105224;1300;62723;-81
2022/07/17 08:11:02;;;;;;;;;;;;;;;28.98;44.16;101195.79;105109;1302;62097;-83
2022/07/17 08:13:27;;;;;;;;;;;;;;;28.98;44.20;101196.80;105149;1300;62015;-81
2022/07/17 08:15:53;;;;;;;;;;;;;;;28.99;43.81;101194.43;105228;1300;62090;-82
2022/07/17 08:18:18;;;;;;;;;;;;;;;28.99;44.09;101196.05;105143;1300;62104;-81
2022/07/17 08:20:44;;;;;;;;;;;;;;;28.98;44.19;101195.02;105121;1301;62168;-81
2022/07/17 08:23:09;;;;;;;;;;;;;;;28.99;44.03;101193.48;105266;1300;62068;-81
2022/07/17 08:25:34;;;;;;;;;;;;;;;28.99;43.91;101196.72;105207;1300;60054;-81
2022/07/17 08:28:00;;;;;;;;;;;;;;;29.00;44.12;101191.27;104996;1302;62110;-81
2022/07/17 08:30:25;;;;;;;;;;;;;;;28.99;43.91;101192.20;105147;1300;62094;-81
2022/07/17 08:32:51;;;;;;;;;;;;;;;28.99;44.00;101195.09;105130;1302;62905;-81
2022/07/17 08:35:17;;;;;;;;;;;;;;;29.00;43.95;101191.25;105195;1300;62213;-81
2022/07/17 08:37:43;;;;;;;;;;;;;;;29.00;44.11;101193.20;105224;1300;62064;-81
2022/07/17 08:40:08;;;;;;;;;;;;;;;29.00;44.05;101191.59;105151;1300;62097;-81
2022/07/17 08:42:42;;;;;;;;;;;;;;;29.00;44.13;101192.08;105191;1300;62145;-81
2022/07/17 08:45:09;;;;;;;;;;;;;;;29.00;44.26;101191.73;105123;1302;72545;-81
2022/07/17 08:47:34;;;;;;;;;;;;;;;29.01;44.10;101187.36;105221;1300;62065;-81
2022/07/17 08:50:00;;;;;;;;;;;;;;;29.01;44.13;101185.89;105120;1302;62821;-81
2022/07/17 08:52:25;;;;;;;;;;;;;;;29.00;44.33;101185.39;105074;1300;62072;-81
2022/07/17 08:54:51;;;;;;;;;;;;;;;29.01;44.13;101181.02;105088;1300;62172;-81
2022/07/17 08:57:16;;;;;;;;;;;;;;;29.01;44.34;101181.21;105092;1300;62066;-81
2022/07/17 08:59:44;;;;;;;;;;;;;;;29.01;44.07;101178.96;105204;1299;62055;-81
2022/07/17 09:02:10;;;;;;;;;;;;;;;29.01;44.12;101176.63;105189;1300;61903;-81
2022/07/17 09:04:35;;;;;;;;;;;;;;;29.01;44.35;101176.62;105133;1300;62088;-81
2022/07/17 09:07:01;;;;;;;;;;;;;;;29.01;44.10;101178.98;105144;1301;62570;-81
2022/07/17 09:09:28;;;;;;;;;;;;;;;29.01;44.10;101170.65;105110;1300;62095;-81
2022/07/17 09:11:55;;;;;;;;;;;;;;;29.01;44.11;101170.78;105268;1300;62050;-81
2022/07/17 09:14:20;;;;;;;;;;;;;;;29.01;44.04;101170.60;105261;1300;62059;-81
2022/07/17 09:16:56;;;;;;;;;;;;;;;29.01;44.01;101173.50;105242;1300;62161;-81
2022/07/17 09:19:25;;;;;;;;;;;;;;;29.01;43.99;101172.41;105135;1302;75567;-81
2022/07/17 09:21:51;;;;;;;;;;;;;;;29.02;43.78;101169.88;105254;1300;62078;-80
2022/07/17 09:24:16;;;;;;;;;;;;;;;29.01;43.96;101165.35;105205;1300;62740;-80
2022/07/17 09:26:44;;;;;;;;;;;;;;;29.01;44.07;101164.80;105097;1302;62085;-81
2022/07/17 09:29:11;;;;;;;;;;;;;;;29.01;44.26;101161.20;105213;1300;62079;-81
2022/07/17 09:31:37;;;;;;;;;;;;;;;29.01;44.18;101157.05;105134;1300;61979;-81
2022/07/17 09:34:02;;;;;;;;;;;;;;;29.01;44.14;101156.48;105134;1301;62204;-81
2022/07/17 09:36:28;;;;;;;;;;;;;;;29.01;44.04;101157.60;105228;1300;62076;-81
2022/07/17 09:38:54;;;;;;;;;;;;;;;29.02;44.20;101153.36;105207;1300;62085;-81
2022/07/17 09:41:20;;;;;;;;;;;;;;;29.01;44.03;101153.73;105206;1300;62122;-81
2022/07/17 09:43:50;;;;;;;;;;;;;;;29.01;44.15;101153.94;104965;1302;62042;-81
2022/07/17 09:46:26;;;;;;;;;;;;;;;29.02;44.09;101153.00;105016;1300;61976;-81
2022/07/17 09:48:52;;;;;;;;;;;;;;;29.02;44.18;101152.40;105504;1302;74007;-81
2022/07/17 09:51:25;;;;;;;;;;;;;;;29.03;44.17;101151.83;105032;1300;62310;-81
2022/07/17 09:53:52;;;;;;;;;;;;;;;29.03;44.20;101156.17;105131;1300;62443;-81
2022/07/17 09:56:18;;;;;;;;;;;;;;;29.03;44.07;101159.19;105041;1300;62397;-81
2022/07/17 09:59:04;;;;;;;;;;;;;;;29.03;44.06;101159.73;105212;1300;62104;-81
2022/07/17 10:01:30;;;;;;;;;;;;;;;29.04;44.07;101159.48;105033;1300;75655;-81
2022/07/17 10:03:56;;;;;;;;;;;;;;;29.04;44.32;101157.67;105121;1300;62096;-81
2022/07/17 10:06:22;;;;;;;;;;;;;;;29.04;44.24;101154.06;105067;1302;62171;-81
2022/07/17 10:08:48;;;;;;;;;;;;;;;29.04;44.33;101146.96;105198;1301;62091;-81
2022/07/17 10:11:15;;;;;;;;;;;;;;;29.04;44.24;101144.79;105128;1301;62153;-81
2022/07/17 10:13:42;;;;;;;;;;;;;;;29.04;44.06;101150.58;105091;1301;62178;-81
2022/07/17 10:16:07;;;;;;;;;;;;;;;29.04;44.13;101146.25;105173;1300;61947;-82
2022/07/17 10:18:37;;;;;;;;;;;;;;;29.04;43.97;101145.91;105245;1300;62206;-83
2022/07/17 10:21:06;;;;;;;;;;;;;;;29.04;44.11;101141.39;105099;1301;76543;-81
2022/07/17 10:23:31;;;;;;;;;;;;;;;29.04;44.05;101136.13;105148;1300;61057;-81
2022/07/17 10:25:57;;;;;;;;;;;;;;;29.03;43.94;101134.40;105209;1300;62079;-81
2022/07/17 10:28:23;;;;;;;;;;;;;;;29.03;44.11;101129.87;105233;1300;63015;-81
2022/07/17 10:30:48;;;;;;;;;;;;;;;29.02;44.02;101120.15;105131;1301;62075;-81
2022/07/17 10:33:15;;;;;;;;;;;;;;;29.02;44.05;101120.70;105119;1300;62095;-81
2022/07/17 10:35:47;;;;;;;;;;;;;;;29.02;44.06;101116.89;105144;1300;61989;-82
2022/07/17 10:38:13;;;;;;;;;;;;;;;29.02;44.06;101114.77;105269;1300;62082;-82
2022/07/17 10:40:39;;;;;;;;;;;;;;;29.02;43.86;101115.15;105259;1300;62212;-82
2022/07/17 10:43:08;;;;;;;;;;;;;;;29.01;44.01;101111.54;105246;1300;62065;-82
2022/07/17 10:45:35;;;;;;;;;;;;;;;29.01;44.12;101108.68;105164;1302;62167;-82
2022/07/17 10:48:04;;;;;;;;;;;;;;;29.01;44.10;101103.23;105251;1300;61916;-81
2022/07/17 10:50:36;;;;;;;;;;;;;;;29.00;43.87;101099.68;105210;1300;72909;-81
2022/07/17 10:53:05;;;;;;;;;;;;;;;29.00;43.95;101106.20;105228;1300;75591;-81
2022/07/17 10:55:31;;;;;;;;;;;;;;;29.00;43.92;101102.40;105129;1301;62123;-81
2022/07/17 10:57:56;;;;;;;;;;;;;;;29.00;43.86;101105.12;105266;1300;62086;-81
2022/07/17 11:00:22;;;;;;;;;;;;;;;29.01;43.79;101105.08;105230;1300;62084;-81
2022/07/17 11:02:47;;;;;;;;;;;;;;;29.01;43.79;101093.50;105197;1300;63359;-82
2022/07/17 11:05:13;;;;;;;;;;;;;;;29.01;43.67;101097.31;105078;1302;62020;-82
2022/07/17 11:07:55;;;;;;;;;;;;;;;29.00;43.72;101095.91;105141;1300;62056;-82
2022/07/17 11:10:21;;;;;;;;;;;;;;;29.00;43.50;101097.16;105219;1300;62085;-82
2022/07/17 11:12:47;;;;;;;;;;;;;;;29.00;43.65;101096.14;105228;1300;61914;-81
2022/07/17 11:15:13;;;;;;;;;;;;;;;29.00;43.49;101097.16;105257;1300;62088;-81
2022/07/17 11:17:43;;;;;;;;;;;;;;;29.00;43.63;101093.19;105145;1301;62052;-81
2022/07/17 11:20:10;;;;;;;;;;;;;;;29.00;43.75;101092.11;105036;1302;62706;-81
2022/07/17 11:22:36;;;;;;;;;;;;;;;29.01;43.62;101088.61;105192;1300;72695;-81
2022/07/17 11:25:02;;;;;;;;;;;;;;;29.01;43.41;101088.73;104802;1300;62231;-81
2022/07/17 11:27:28;;;;;;;;;;;;;;;29.01;43.64;101079.54;105036;1300;61975;-81
2022/07/17 11:29:54;;;;;;;;;;;;;;;29.01;43.67;101076.04;104995;1300;62193;-81
2022/07/17 11:32:20;;;;;;;;;;;;;;;29.02;43.56;101073.23;105171;1300;62593;-81
2022/07/17 11:34:46;;;;;;;;;;;;;;;29.02;43.37;101081.19;104759;1300;62281;-81
2022/07/17 11:37:11;;;;;;;;;;;;;;;29.03;43.56;101075.52;105037;1302;62049;-81
2022/07/17 11:39:49;;;;;;;;;;;;;;;29.03;43.67;101072.23;105216;1302;62168;-81
2022/07/17 11:42:15;;;;;;;;;;;;;;;29.03;43.43;101068.09;105184;1302;62087;-82
2022/07/17 11:44:41;;;;;;;;;;;;;;;29.03;43.48;101063.90;105075;1300;62210;-82
2022/07/17 11:47:07;;;;;;;;;;;;;;;29.03;43.60;101066.41;104993;1302;62055;-81
2022/07/17 11:49:34;;;;;;;;;;;;;;;29.03;43.33;101062.40;105101;1300;62213;-82
2022/07/17 11:52:13;;;;;;;;;;;;;;;29.04;43.48;101061.98;105060;1302;62085;-82
2022/07/17 11:54:59;;;;;;;;;;;;;;;29.04;43.20;101055.65;105159;1301;73017;-82
2022/07/17 11:57:26;;;;;;;;;;;;;;;29.04;43.22;101055.08;105149;1300;74537;-81
2022/07/17 11:59:52;;;;;;;;;;;;;;;29.04;43.29;101053.79;105237;1300;62097;-81
2022/07/17 12:02:22;;;;;;;;;;;;;;;29.05;43.22;101049.73;105251;1300;62057;-81
2022/07/17 12:04:51;;;;;;;;;;;;;;;29.05;43.23;101054.44;105246;1300;74004;-81
2022/07/17 12:07:17;;;;;;;;;;;;;;;29.05;43.18;101049.20;105231;1300;76706;-81
2022/07/17 12:09:42;;;;;;;;;;;;;;;29.04;43.15;101045.80;105151;1302;62087;-81
2022/07/17 12:12:17;;;;;;;;;;;;;;;29.04;43.05;101043.83;105216;1302;62144;-81
2022/07/17 12:14:47;;;;;;;;;;;;;;;29.04;43.09;101038.23;105172;1300;72699;-81
2022/07/17 12:17:12;;;;;;;;;;;;;;;29.05;42.98;101037.44;105231;1300;76605;-81
2022/07/17 12:19:38;;;;;;;;;;;;;;;29.05;43.06;101032.34;105203;1300;62088;-81
2022/07/17 12:22:04;;;;;;;;;;;;;;;29.05;43.02;101027.11;105206;1300;62056;-81